This is the latest recevied weather packets stored in our database for station/object SV2RIM-2. If no packets are shown the sender has not sent any weather packets the latest 10 day(s).
| Time | Temp. | Humidity | Pressure | Rain* | Wind** | Luminosity | Snow |
|---|---|---|---|---|---|---|---|
| 1777746619 | 11.11° C | 47% | 1018.3 hPa | 3.81 mm | - | - | - |
| 1777746019 | 11.11° C | 47% | 1018.1 hPa | 3.81 mm | - | - | - |
| 1777745419 | 11.11° C | 47% | 1018 hPa | 3.81 mm | - | - | - |
| 1777744819 | 11.11° C | 46% | 1017.8 hPa | 3.81 mm | - | - | - |
| 1777744219 | 11.67° C | 46% | 1017.7 hPa | 3.81 mm | - | - | - |
| 1777743619 | 12.22° C | 45% | 1017.7 hPa | 3.81 mm | - | - | - |
| 1777743019 | 12.22° C | 44% | 1017.5 hPa | 3.81 mm | - | - | - |
| 1777742419 | 12.22° C | 45% | 1017.3 hPa | 3.81 mm | - | - | - |
| 1777741819 | 12.78° C | 45% | 1017.4 hPa | 3.81 mm | - | - | - |
| 1777741219 | 13.89° C | 43% | 1017.2 hPa | 3.81 mm | - | - | - |
| 1777740619 | 14.44° C | 43% | 1017.1 hPa | 3.81 mm | - | - | - |
| 1777740019 | 16.11° C | 42% | 1017.1 hPa | 3.81 mm | - | - | - |
| 1777739419 | 21.11° C | 32% | 1017.1 hPa | 3.81 mm | - | - | - |
| 1777738819 | 18.33° C | 34% | 1017.1 hPa | 3.81 mm | - | - | - |
| 1777738219 | 15.56° C | 39% | 1017.1 hPa | 3.81 mm | - | - | - |
| 1777737619 | 15.56° C | 39% | 1017.1 hPa | 3.81 mm | - | - | - |
| 1777737019 | 15.56° C | 40% | 1017.2 hPa | 3.81 mm | - | - | - |
| 1777736419 | 15.56° C | 42% | 1017.2 hPa | 3.81 mm | - | - | - |
| 1777735819 | 15.56° C | 41% | 1017.3 hPa | 3.81 mm | - | - | - |
| 1777735219 | 16.11° C | 42% | 1017.2 hPa | 3.81 mm | - | - | - |
| 1777734619 | 17.22° C | 42% | 1017 hPa | 3.81 mm | - | - | - |
| 1777734019 | 19.44° C | 39% | 1017.1 hPa | 3.81 mm | - | - | - |
| 1777733419 | 18.33° C | 42% | 1017.1 hPa | 3.81 mm | - | - | - |
| 1777732819 | 18.33° C | 44% | 1017.3 hPa | 3.81 mm | - | - | - |
| 1777732219 | 18.33° C | 49% | 1017.2 hPa | 3.81 mm | - | - | - |
* Rain latest 24 hours (hover to see other rain measurements)
** Current wind speed in m/s (hover to see current wind gust speed)